sensor_id;sensor_type;location;lat;lon;timestamp;pressure;altitude;pressure_sealevel;temperature;humidity
12475;BME280;6302;42.624;23.334;2023-07-09T00:00:42;93743.84;;;19.22;82.95
12475;BME280;6302;42.624;23.334;2023-07-09T00:03:09;93742.56;;;19.14;84.16
12475;BME280;6302;42.624;23.334;2023-07-09T00:05:37;93737.53;;;19.16;83.91
12475;BME280;6302;42.624;23.334;2023-07-09T00:08:04;93746.88;;;19.11;85.31
12475;BME280;6302;42.624;23.334;2023-07-09T00:10:31;93744.88;;;19.03;84.79
12475;BME280;6302;42.624;23.334;2023-07-09T00:12:59;93735.97;;;19.06;85.51
12475;BME280;6302;42.624;23.334;2023-07-09T00:15:27;93737.44;;;19.07;84.35
12475;BME280;6302;42.624;23.334;2023-07-09T00:17:54;93733.81;;;19.01;84.36
12475;BME280;6302;42.624;23.334;2023-07-09T00:20:21;93740.59;;;18.93;85.79
12475;BME280;6302;42.624;23.334;2023-07-09T00:22:48;93737.38;;;18.98;85.33
12475;BME280;6302;42.624;23.334;2023-07-09T00:25:19;93734.69;;;18.98;85.13
12475;BME280;6302;42.624;23.334;2023-07-09T00:27:46;93732.63;;;19.02;84.31
12475;BME280;6302;42.624;23.334;2023-07-09T00:30:16;93721.81;;;18.93;84.80
12475;BME280;6302;42.624;23.334;2023-07-09T00:32:45;93728.34;;;18.92;85.76
12475;BME280;6302;42.624;23.334;2023-07-09T00:35:12;93734.03;;;18.94;84.31
12475;BME280;6302;42.624;23.334;2023-07-09T00:37:41;93728.03;;;18.90;85.06
12475;BME280;6302;42.624;23.334;2023-07-09T00:40:13;93729.66;;;18.87;85.09
12475;BME280;6302;42.624;23.334;2023-07-09T00:42:44;93724.41;;;18.83;85.12
12475;BME280;6302;42.624;23.334;2023-07-09T00:45:18;93716.03;;;18.81;85.19
12475;BME280;6302;42.624;23.334;2023-07-09T00:47:52;93719.16;;;18.80;85.50
12475;BME280;6302;42.624;23.334;2023-07-09T00:50:32;93723.53;;;18.87;84.42
12475;BME280;6302;42.624;23.334;2023-07-09T00:53:03;93723.66;;;18.83;84.31
12475;BME280;6302;42.624;23.334;2023-07-09T00:55:38;93709.78;;;18.84;84.38
12475;BME280;6302;42.624;23.334;2023-07-09T00:58:11;93708.41;;;18.80;85.15
12475;BME280;6302;42.624;23.334;2023-07-09T01:00:43;93710.03;;;18.77;85.25
12475;BME280;6302;42.624;23.334;2023-07-09T01:03:20;93714.78;;;18.73;84.86
12475;BME280;6302;42.624;23.334;2023-07-09T01:05:49;93707.44;;;18.74;84.72
12475;BME280;6302;42.624;23.334;2023-07-09T01:08:18;93698.88;;;18.66;84.18
12475;BME280;6302;42.624;23.334;2023-07-09T01:10:45;93711.75;;;18.71;83.27
12475;BME280;6302;42.624;23.334;2023-07-09T01:13:12;93703.28;;;18.73;83.38
12475;BME280;6302;42.624;23.334;2023-07-09T01:15:39;93713.25;;;18.72;83.41
12475;BME280;6302;42.624;23.334;2023-07-09T01:18:07;93702.41;;;18.76;82.48
12475;BME280;6302;42.624;23.334;2023-07-09T01:20:38;93702.50;;;18.72;82.62
12475;BME280;6302;42.624;23.334;2023-07-09T01:23:07;93696.38;;;18.72;83.22
12475;BME280;6302;42.624;23.334;2023-07-09T01:25:43;93699.06;;;18.72;83.39
12475;BME280;6302;42.624;23.334;2023-07-09T01:28:11;93699.28;;;18.77;83.06
12475;BME280;6302;42.624;23.334;2023-07-09T01:30:40;93697.78;;;18.76;82.94
12475;BME280;6302;42.624;23.334;2023-07-09T01:33:07;93694.56;;;18.69;83.39
12475;BME280;6302;42.624;23.334;2023-07-09T01:35:37;93692.00;;;18.65;84.14
12475;BME280;6302;42.624;23.334;2023-07-09T01:38:08;93687.81;;;18.64;83.29
12475;BME280;6302;42.624;23.334;2023-07-09T01:40:35;93691.25;;;18.65;83.09
12475;BME280;6302;42.624;23.334;2023-07-09T01:43:03;93681.91;;;18.57;83.71
12475;BME280;6302;42.624;23.334;2023-07-09T01:45:32;93689.88;;;18.60;83.63
12475;BME280;6302;42.624;23.334;2023-07-09T01:47:59;93696.41;;;18.59;83.20
12475;BME280;6302;42.624;23.334;2023-07-09T01:50:26;93708.44;;;18.55;82.94
12475;BME280;6302;42.624;23.334;2023-07-09T01:52:54;93701.47;;;18.57;82.88
12475;BME280;6302;42.624;23.334;2023-07-09T01:55:23;93707.81;;;18.63;83.02
12475;BME280;6302;42.624;23.334;2023-07-09T01:57:50;93708.88;;;18.66;82.67
12475;BME280;6302;42.624;23.334;2023-07-09T02:00:17;93706.28;;;18.62;82.13
12475;BME280;6302;42.624;23.334;2023-07-09T02:02:45;93701.88;;;18.68;82.03
12475;BME280;6302;42.624;23.334;2023-07-09T02:05:16;93705.44;;;18.65;82.50
12475;BME280;6302;42.624;23.334;2023-07-09T02:07:43;93701.00;;;18.71;81.87
12475;BME280;6302;42.624;23.334;2023-07-09T02:10:11;93709.63;;;18.66;82.16
12475;BME280;6302;42.624;23.334;2023-07-09T02:12:39;93704.88;;;18.70;82.55
12475;BME280;6302;42.624;23.334;2023-07-09T02:15:07;93707.03;;;18.75;82.54
12475;BME280;6302;42.624;23.334;2023-07-09T02:17:34;93706.81;;;18.70;82.33
12475;BME280;6302;42.624;23.334;2023-07-09T02:20:02;93707.03;;;18.75;82.11
12475;BME280;6302;42.624;23.334;2023-07-09T02:22:29;93709.63;;;18.66;82.94
12475;BME280;6302;42.624;23.334;2023-07-09T02:24:56;93714.03;;;18.60;83.03
12475;BME280;6302;42.624;23.334;2023-07-09T02:27:23;93713.94;;;18.64;83.03
12475;BME280;6302;42.624;23.334;2023-07-09T02:29:51;93718.22;;;18.61;83.58
12475;BME280;6302;42.624;23.334;2023-07-09T02:32:21;93722.31;;;18.53;83.60
12475;BME280;6302;42.624;23.334;2023-07-09T02:34:49;93685.38;;;18.32;83.69
12475;BME280;6302;42.624;23.334;2023-07-09T02:37:18;93724.25;;;18.53;84.38
12475;BME280;6302;42.624;23.334;2023-07-09T02:39:45;93710.81;;;18.40;84.66
12475;BME280;6302;42.624;23.334;2023-07-09T02:42:14;93732.16;;;18.44;85.13
12475;BME280;6302;42.624;23.334;2023-07-09T02:44:42;93725.22;;;18.46;85.23
12475;BME280;6302;42.624;23.334;2023-07-09T02:47:11;93732.47;;;18.46;84.51
12475;BME280;6302;42.624;23.334;2023-07-09T02:49:38;93741.38;;;18.43;85.44
12475;BME280;6302;42.624;23.334;2023-07-09T02:52:06;93742.06;;;18.47;85.32
12475;BME280;6302;42.624;23.334;2023-07-09T02:54:33;93735.25;;;18.42;85.29
12475;BME280;6302;42.624;23.334;2023-07-09T02:57:02;93747.59;;;18.40;85.94
12475;BME280;6302;42.624;23.334;2023-07-09T02:59:28;93739.56;;;18.40;86.15
12475;BME280;6302;42.624;23.334;2023-07-09T03:01:56;93739.25;;;18.38;86.05
12475;BME280;6302;42.624;23.334;2023-07-09T03:04:24;93751.19;;;18.37;86.30
12475;BME280;6302;42.624;23.334;2023-07-09T03:06:51;93751.03;;;18.28;87.43
12475;BME280;6302;42.624;23.334;2023-07-09T03:09:18;93750.63;;;18.29;87.21
12475;BME280;6302;42.624;23.334;2023-07-09T03:11:45;93748.28;;;18.31;88.02
12475;BME280;6302;42.624;23.334;2023-07-09T03:14:11;93753.63;;;18.31;87.91
12475;BME280;6302;42.624;23.334;2023-07-09T03:16:38;93754.50;;;18.28;87.23
12475;BME280;6302;42.624;23.334;2023-07-09T03:19:05;93754.06;;;18.42;86.44
12475;BME280;6302;42.624;23.334;2023-07-09T03:21:33;93750.97;;;18.44;87.55
12475;BME280;6302;42.624;23.334;2023-07-09T03:24:00;93757.63;;;18.39;88.46
12475;BME280;6302;42.624;23.334;2023-07-09T03:26:27;93755.13;;;18.32;89.66
12475;BME280;6302;42.624;23.334;2023-07-09T03:28:54;93759.41;;;18.30;94.04
12475;BME280;6302;42.624;23.334;2023-07-09T03:31:21;93758.03;;;18.25;94.46
12475;BME280;6302;42.624;23.334;2023-07-09T03:33:49;93757.25;;;18.25;91.97
12475;BME280;6302;42.624;23.334;2023-07-09T03:36:16;93759.94;;;18.37;93.09
12475;BME280;6302;42.624;23.334;2023-07-09T03:38:45;93761.47;;;18.38;92.47
12475;BME280;6302;42.624;23.334;2023-07-09T03:41:12;93758.47;;;18.36;92.46
12475;BME280;6302;42.624;23.334;2023-07-09T03:43:39;93755.47;;;18.34;92.73
12475;BME280;6302;42.624;23.334;2023-07-09T03:46:05;93757.94;;;18.41;92.69
12475;BME280;6302;42.624;23.334;2023-07-09T03:48:32;93756.09;;;18.38;92.30
12475;BME280;6302;42.624;23.334;2023-07-09T03:50:59;93761.50;;;18.51;91.82
12475;BME280;6302;42.624;23.334;2023-07-09T03:53:26;93766.00;;;18.54;91.18
12475;BME280;6302;42.624;23.334;2023-07-09T03:55:55;93755.81;;;18.61;91.05
12475;BME280;6302;42.624;23.334;2023-07-09T03:58:24;93773.94;;;18.70;89.99
12475;BME280;6302;42.624;23.334;2023-07-09T04:00:51;93761.59;;;18.72;89.63
12475;BME280;6302;42.624;23.334;2023-07-09T04:03:19;93776.91;;;18.84;89.81
12475;BME280;6302;42.624;23.334;2023-07-09T04:05:47;93768.44;;;18.86;91.06
12475;BME280;6302;42.624;23.334;2023-07-09T04:08:14;93766.84;;;18.89;91.08
12475;BME280;6302;42.624;23.334;2023-07-09T04:10:40;93772.06;;;18.92;91.92
12475;BME280;6302;42.624;23.334;2023-07-09T04:13:08;93767.53;;;19.02;91.62
12475;BME280;6302;42.624;23.334;2023-07-09T04:15:35;93781.06;;;19.11;90.24
12475;BME280;6302;42.624;23.334;2023-07-09T04:18:02;93781.16;;;19.20;89.72
12475;BME280;6302;42.624;23.334;2023-07-09T04:20:29;93780.28;;;19.23;90.44
12475;BME280;6302;42.624;23.334;2023-07-09T04:22:56;93782.97;;;19.23;90.55
12475;BME280;6302;42.624;23.334;2023-07-09T04:25:23;93785.84;;;19.28;89.65
12475;BME280;6302;42.624;23.334;2023-07-09T04:27:49;93798.66;;;19.37;89.15
12475;BME280;6302;42.624;23.334;2023-07-09T04:30:18;93786.59;;;19.41;91.33
12475;BME280;6302;42.624;23.334;2023-07-09T04:32:45;93787.03;;;19.40;91.02
12475;BME280;6302;42.624;23.334;2023-07-09T04:35:13;93791.31;;;19.50;91.21
12475;BME280;6302;42.624;23.334;2023-07-09T04:37:40;93790.53;;;19.50;88.66
12475;BME280;6302;42.624;23.334;2023-07-09T04:40:08;93794.59;;;19.54;90.42
12475;BME280;6302;42.624;23.334;2023-07-09T04:42:40;93788.44;;;19.66;89.07
12475;BME280;6302;42.624;23.334;2023-07-09T04:45:09;93799.69;;;19.74;91.49
12475;BME280;6302;42.624;23.334;2023-07-09T04:47:38;93796.50;;;19.88;91.07
12475;BME280;6302;42.624;23.334;2023-07-09T04:50:07;93798.19;;;19.94;91.09
12475;BME280;6302;42.624;23.334;2023-07-09T04:52:34;93797.69;;;20.08;88.75
12475;BME280;6302;42.624;23.334;2023-07-09T04:55:01;93794.41;;;20.13;87.36
12475;BME280;6302;42.624;23.334;2023-07-09T04:57:28;93792.44;;;20.27;86.43
12475;BME280;6302;42.624;23.334;2023-07-09T04:59:55;93795.03;;;20.39;84.20
12475;BME280;6302;42.624;23.334;2023-07-09T05:02:22;93800.88;;;20.47;83.85
12475;BME280;6302;42.624;23.334;2023-07-09T05:04:51;93798.38;;;20.52;82.63
12475;BME280;6302;42.624;23.334;2023-07-09T05:07:18;93806.03;;;20.54;82.97
12475;BME280;6302;42.624;23.334;2023-07-09T05:09:45;93804.78;;;20.46;82.84
12475;BME280;6302;42.624;23.334;2023-07-09T05:12:12;93804.00;;;20.36;82.08
12475;BME280;6302;42.624;23.334;2023-07-09T05:14:39;93802.94;;;20.34;84.68
12475;BME280;6302;42.624;23.334;2023-07-09T05:17:07;93809.19;;;20.31;84.45
12475;BME280;6302;42.624;23.334;2023-07-09T05:19:34;93811.47;;;20.20;85.19
12475;BME280;6302;42.624;23.334;2023-07-09T05:22:02;93807.63;;;20.21;85.72
12475;BME280;6302;42.624;23.334;2023-07-09T05:24:29;93813.34;;;20.23;87.14
12475;BME280;6302;42.624;23.334;2023-07-09T05:26:56;93807.56;;;20.33;88.56
12475;BME280;6302;42.624;23.334;2023-07-09T05:29:23;93813.13;;;20.39;87.85
12475;BME280;6302;42.624;23.334;2023-07-09T05:31:50;93802.06;;;20.37;85.94
12475;BME280;6302;42.624;23.334;2023-07-09T05:34:16;93803.28;;;20.45;82.37
12475;BME280;6302;42.624;23.334;2023-07-09T05:36:44;93809.31;;;20.58;81.20
12475;BME280;6302;42.624;23.334;2023-07-09T05:39:13;93808.19;;;20.77;80.64
12475;BME280;6302;42.624;23.334;2023-07-09T05:41:40;93813.03;;;20.91;81.21
12475;BME280;6302;42.624;23.334;2023-07-09T05:44:06;93807.69;;;21.00;80.98
12475;BME280;6302;42.624;23.334;2023-07-09T05:46:35;93810.72;;;21.11;78.88
12475;BME280;6302;42.624;23.334;2023-07-09T05:49:02;93813.50;;;20.99;76.53
12475;BME280;6302;42.624;23.334;2023-07-09T05:51:29;93809.84;;;21.14;79.09
12475;BME280;6302;42.624;23.334;2023-07-09T05:53:57;93809.84;;;21.14;78.78
12475;BME280;6302;42.624;23.334;2023-07-09T05:56:25;93798.59;;;21.16;77.13
12475;BME280;6302;42.624;23.334;2023-07-09T05:58:52;93802.91;;;21.04;79.00
12475;BME280;6302;42.624;23.334;2023-07-09T06:01:19;93789.25;;;20.99;79.13
12475;BME280;6302;42.624;23.334;2023-07-09T06:03:46;93811.09;;;20.92;76.89
12475;BME280;6302;42.624;23.334;2023-07-09T06:06:13;93814.38;;;20.87;78.94
12475;BME280;6302;42.624;23.334;2023-07-09T06:08:40;93812.44;;;20.87;77.72
12475;BME280;6302;42.624;23.334;2023-07-09T06:11:07;93806.47;;;21.01;79.98
12475;BME280;6302;42.624;23.334;2023-07-09T06:13:35;93806.16;;;20.90;77.30
12475;BME280;6302;42.624;23.334;2023-07-09T06:16:03;93795.50;;;20.87;80.54
12475;BME280;6302;42.624;23.334;2023-07-09T06:18:30;93801.66;;;20.87;79.52
12475;BME280;6302;42.624;23.334;2023-07-09T06:20:58;93800.91;;;20.87;78.71
12475;BME280;6302;42.624;23.334;2023-07-09T06:23:26;93804.34;;;20.87;80.68
12475;BME280;6302;42.624;23.334;2023-07-09T06:25:53;93798.66;;;20.85;79.58
12475;BME280;6302;42.624;23.334;2023-07-09T06:28:21;93800.59;;;20.85;78.34
12475;BME280;6302;42.624;23.334;2023-07-09T06:30:50;93804.03;;;20.85;78.26
12475;BME280;6302;42.624;23.334;2023-07-09T06:33:18;93793.88;;;20.89;80.17
12475;BME280;6302;42.624;23.334;2023-07-09T06:35:49;93798.06;;;20.90;79.40
12475;BME280;6302;42.624;23.334;2023-07-09T06:38:17;93798.59;;;21.07;82.76
12475;BME280;6302;42.624;23.334;2023-07-09T06:40:44;93792.44;;;21.06;83.44
12475;BME280;6302;42.624;23.334;2023-07-09T06:43:11;93801.50;;;21.30;84.76
12475;BME280;6302;42.624;23.334;2023-07-09T06:45:38;93806.44;;;21.41;80.93
12475;BME280;6302;42.624;23.334;2023-07-09T06:48:06;93799.97;;;21.29;79.69
12475;BME280;6302;42.624;23.334;2023-07-09T06:50:34;93810.16;;;21.25;80.97
12475;BME280;6302;42.624;23.334;2023-07-09T06:53:00;93807.19;;;21.42;82.51
12475;BME280;6302;42.624;23.334;2023-07-09T06:55:27;93806.16;;;21.66;83.45
12475;BME280;6302;42.624;23.334;2023-07-09T06:57:54;93807.78;;;21.73;79.18
12475;BME280;6302;42.624;23.334;2023-07-09T07:00:21;93799.69;;;21.64;78.32
12475;BME280;6302;42.624;23.334;2023-07-09T07:02:48;93802.25;;;21.67;80.04
12475;BME280;6302;42.624;23.334;2023-07-09T07:05:16;93804.81;;;21.62;77.34
12475;BME280;6302;42.624;23.334;2023-07-09T07:07:44;93809.13;;;21.68;79.49
12475;BME280;6302;42.624;23.334;2023-07-09T07:10:11;93818.44;;;21.67;77.33
12475;BME280;6302;42.624;23.334;2023-07-09T07:12:42;93809.44;;;21.61;78.23
12475;BME280;6302;42.624;23.334;2023-07-09T07:15:10;93815.28;;;21.69;78.39
12475;BME280;6302;42.624;23.334;2023-07-09T07:17:38;93812.59;;;21.78;79.65
12475;BME280;6302;42.624;23.334;2023-07-09T07:20:07;93797.91;;;21.79;78.55
12475;BME280;6302;42.624;23.334;2023-07-09T07:22:36;93803.94;;;21.92;75.07
12475;BME280;6302;42.624;23.334;2023-07-09T07:25:04;93805.69;;;21.95;76.11
12475;BME280;6302;42.624;23.334;2023-07-09T07:27:31;93794.91;;;22.04;75.48
12475;BME280;6302;42.624;23.334;2023-07-09T07:29:58;93800.59;;;22.06;74.03
12475;BME280;6302;42.624;23.334;2023-07-09T07:32:24;93804.50;;;22.05;73.57
12475;BME280;6302;42.624;23.334;2023-07-09T07:34:51;93800.13;;;22.08;74.70
12475;BME280;6302;42.624;23.334;2023-07-09T07:37:20;93796.97;;;22.18;75.84
12475;BME280;6302;42.624;23.334;2023-07-09T07:39:48;93795.47;;;22.26;76.12
12475;BME280;6302;42.624;23.334;2023-07-09T07:42:15;93795.25;;;22.48;76.98
12475;BME280;6302;42.624;23.334;2023-07-09T07:44:42;93792.09;;;22.49;73.95
12475;BME280;6302;42.624;23.334;2023-07-09T07:47:09;93789.22;;;22.53;75.18
12475;BME280;6302;42.624;23.334;2023-07-09T07:49:37;93791.78;;;22.65;75.43
12475;BME280;6302;42.624;23.334;2023-07-09T07:52:05;93791.09;;;22.80;73.13
12475;BME280;6302;42.624;23.334;2023-07-09T07:54:32;93792.09;;;22.91;73.90
12475;BME280;6302;42.624;23.334;2023-07-09T07:57:00;93799.75;;;22.93;72.72
12475;BME280;6302;42.624;23.334;2023-07-09T07:59:27;93792.91;;;22.83;72.67
12475;BME280;6302;42.624;23.334;2023-07-09T08:01:54;93789.34;;;23.00;72.10
12475;BME280;6302;42.624;23.334;2023-07-09T08:04:21;93784.47;;;23.13;72.66
12475;BME280;6302;42.624;23.334;2023-07-09T08:06:48;93790.06;;;23.10;71.02
12475;BME280;6302;42.624;23.334;2023-07-09T08:09:15;93782.28;;;23.03;69.82
12475;BME280;6302;42.624;23.334;2023-07-09T08:11:42;93786.19;;;23.02;70.16
12475;BME280;6302;42.624;23.334;2023-07-09T08:14:11;93779.81;;;23.14;71.12
12475;BME280;6302;42.624;23.334;2023-07-09T08:16:38;93784.31;;;23.17;69.99
12475;BME280;6302;42.624;23.334;2023-07-09T08:19:04;93768.59;;;23.30;69.91
12475;BME280;6302;42.624;23.334;2023-07-09T08:21:31;93767.53;;;23.37;68.64
12475;BME280;6302;42.624;23.334;2023-07-09T08:23:58;93774.38;;;23.47;71.83
12475;BME280;6302;42.624;23.334;2023-07-09T08:26:25;93771.81;;;23.67;70.31
12475;BME280;6302;42.624;23.334;2023-07-09T08:28:53;93767.16;;;23.67;67.04
12475;BME280;6302;42.624;23.334;2023-07-09T08:31:21;93769.00;;;23.76;67.92
12475;BME280;6302;42.624;23.334;2023-07-09T08:33:48;93772.84;;;23.69;67.55
12475;BME280;6302;42.624;23.334;2023-07-09T08:36:15;93766.78;;;23.74;67.99
12475;BME280;6302;42.624;23.334;2023-07-09T08:38:41;93777.53;;;23.83;67.02
12475;BME280;6302;42.624;23.334;2023-07-09T08:41:20;93772.31;;;23.80;70.03
12475;BME280;6302;42.624;23.334;2023-07-09T08:44:04;93770.91;;;23.99;68.44
12475;BME280;6302;42.624;23.334;2023-07-09T08:46:44;93774.59;;;24.11;68.39
12475;BME280;6302;42.624;23.334;2023-07-09T08:49:17;93773.28;;;24.21;70.51
12475;BME280;6302;42.624;23.334;2023-07-09T08:51:46;93771.22;;;24.16;68.09
12475;BME280;6302;42.624;23.334;2023-07-09T08:54:20;93770.03;;;24.17;67.98
12475;BME280;6302;42.624;23.334;2023-07-09T08:56:51;93773.44;;;24.03;65.58
12475;BME280;6302;42.624;23.334;2023-07-09T08:59:19;93784.25;;;24.03;67.25
12475;BME280;6302;42.624;23.334;2023-07-09T09:01:51;93775.69;;;24.04;67.36
12475;BME280;6302;42.624;23.334;2023-07-09T09:04:24;93780.22;;;24.07;67.49
12475;BME280;6302;42.624;23.334;2023-07-09T09:06:59;93770.56;;;24.21;69.48
12475;BME280;6302;42.624;23.334;2023-07-09T09:09:33;93772.81;;;24.37;66.80
12475;BME280;6302;42.624;23.334;2023-07-09T09:12:13;93782.81;;;24.31;65.51
12475;BME280;6302;42.624;23.334;2023-07-09T09:14:43;93779.09;;;24.28;65.66
12475;BME280;6302;42.624;23.334;2023-07-09T09:17:15;93779.91;;;24.20;67.64
12475;BME280;6302;42.624;23.334;2023-07-09T09:19:47;93761.69;;;24.20;67.24
12475;BME280;6302;42.624;23.334;2023-07-09T09:22:18;93769.44;;;24.42;68.65
12475;BME280;6302;42.624;23.334;2023-07-09T09:24:57;93770.25;;;24.63;65.99
12475;BME280;6302;42.624;23.334;2023-07-09T09:27:24;93774.19;;;24.62;65.68
12475;BME280;6302;42.624;23.334;2023-07-09T09:29:51;93771.69;;;24.58;67.15
12475;BME280;6302;42.624;23.334;2023-07-09T09:32:25;93778.56;;;24.59;63.81
12475;BME280;6302;42.624;23.334;2023-07-09T09:34:52;93768.78;;;24.47;63.61
12475;BME280;6302;42.624;23.334;2023-07-09T09:37:26;93762.63;;;24.46;68.14
12475;BME280;6302;42.624;23.334;2023-07-09T09:39:54;93760.56;;;24.56;66.74
12475;BME280;6302;42.624;23.334;2023-07-09T09:42:23;93760.94;;;24.78;68.59
12475;BME280;6302;42.624;23.334;2023-07-09T09:44:50;93762.97;;;24.83;65.35
12475;BME280;6302;42.624;23.334;2023-07-09T09:47:21;93760.06;;;24.87;64.73
12475;BME280;6302;42.624;23.334;2023-07-09T09:49:48;93751.06;;;24.95;63.17
12475;BME280;6302;42.624;23.334;2023-07-09T09:52:17;93760.00;;;24.81;62.17
12475;BME280;6302;42.624;23.334;2023-07-09T09:54:50;93757.56;;;24.83;63.31
12475;BME280;6302;42.624;23.334;2023-07-09T09:57:19;93755.09;;;24.85;63.01
12475;BME280;6302;42.624;23.334;2023-07-09T09:59:47;93748.34;;;24.95;63.83
12475;BME280;6302;42.624;23.334;2023-07-09T10:02:17;93751.59;;;24.99;63.82
12475;BME280;6302;42.624;23.334;2023-07-09T10:04:46;93747.69;;;25.00;62.74
12475;BME280;6302;42.624;23.334;2023-07-09T10:07:21;93757.28;;;25.01;64.68
12475;BME280;6302;42.624;23.334;2023-07-09T10:09:51;93744.34;;;25.11;61.46
12475;BME280;6302;42.624;23.334;2023-07-09T10:12:34;93748.06;;;25.13;64.94
12475;BME280;6302;42.624;23.334;2023-07-09T10:15:14;93742.13;;;25.09;61.97
12475;BME280;6302;42.624;23.334;2023-07-09T10:17:49;93739.94;;;25.13;61.67
12475;BME280;6302;42.624;23.334;2023-07-09T10:20:24;93738.59;;;25.23;60.67
12475;BME280;6302;42.624;23.334;2023-07-09T10:22:55;93743.00;;;25.41;60.44
12475;BME280;6302;42.624;23.334;2023-07-09T10:25:35;93743.34;;;25.29;59.09
12475;BME280;6302;42.624;23.334;2023-07-09T10:28:17;93720.78;;;25.17;59.59
12475;BME280;6302;42.624;23.334;2023-07-09T10:30:50;93738.22;;;25.31;58.73
12475;BME280;6302;42.624;23.334;2023-07-09T10:33:27;93734.22;;;25.46;61.66
12475;BME280;6302;42.624;23.334;2023-07-09T10:36:03;93732.22;;;25.67;63.02
12475;BME280;6302;42.624;23.334;2023-07-09T10:38:45;93734.75;;;25.96;62.02
12475;BME280;6302;42.624;23.334;2023-07-09T10:41:13;93739.75;;;26.03;59.38
12475;BME280;6302;42.624;23.334;2023-07-09T10:43:45;93737.53;;;26.07;56.45
12475;BME280;6302;42.624;23.334;2023-07-09T10:46:15;93735.81;;;26.04;53.98
12475;BME280;6302;42.624;23.334;2023-07-09T10:48:45;93729.63;;;25.78;54.28
12475;BME280;6302;42.624;23.334;2023-07-09T10:51:20;93737.41;;;25.65;57.03
12475;BME280;6302;42.624;23.334;2023-07-09T10:53:51;93720.03;;;25.57;56.16
12475;BME280;6302;42.624;23.334;2023-07-09T10:56:23;93728.06;;;25.71;54.48
12475;BME280;6302;42.624;23.334;2023-07-09T10:58:55;93727.72;;;25.84;53.99
12475;BME280;6302;42.624;23.334;2023-07-09T11:01:29;93737.06;;;25.83;55.49
12475;BME280;6302;42.624;23.334;2023-07-09T11:04:01;93731.38;;;25.81;54.73
12475;BME280;6302;42.624;23.334;2023-07-09T11:06:36;93726.13;;;25.72;53.45
12475;BME280;6302;42.624;23.334;2023-07-09T11:09:06;93724.41;;;25.74;57.86
12475;BME280;6302;42.624;23.334;2023-07-09T11:11:42;93728.03;;;25.92;54.76
12475;BME280;6302;42.624;23.334;2023-07-09T11:14:21;93727.41;;;26.02;54.66
12475;BME280;6302;42.624;23.334;2023-07-09T11:16:53;93719.25;;;26.02;49.75
12475;BME280;6302;42.624;23.334;2023-07-09T11:19:22;93725.38;;;25.97;49.66
12475;BME280;6302;42.624;23.334;2023-07-09T11:22:03;93723.75;;;26.11;51.28
12475;BME280;6302;42.624;23.334;2023-07-09T11:24:35;93722.75;;;26.08;49.44
12475;BME280;6302;42.624;23.334;2023-07-09T11:27:16;93735.41;;;26.11;47.65
12475;BME280;6302;42.624;23.334;2023-07-09T11:29:46;93726.56;;;26.16;49.31
12475;BME280;6302;42.624;23.334;2023-07-09T11:32:18;93719.50;;;26.30;49.88
12475;BME280;6302;42.624;23.334;2023-07-09T11:34:46;93707.53;;;26.47;51.68
12475;BME280;6302;42.624;23.334;2023-07-09T11:37:15;93719.34;;;26.44;49.43
12475;BME280;6302;42.624;23.334;2023-07-09T11:39:44;93703.81;;;26.45;50.57
12475;BME280;6302;42.624;23.334;2023-07-09T11:42:26;93707.84;;;26.55;49.58
12475;BME280;6302;42.624;23.334;2023-07-09T11:44:59;93708.28;;;26.48;50.04
12475;BME280;6302;42.624;23.334;2023-07-09T11:47:29;93702.69;;;26.63;50.27
12475;BME280;6302;42.624;23.334;2023-07-09T11:50:00;93706.72;;;26.73;46.13
12475;BME280;6302;42.624;23.334;2023-07-09T11:52:33;93713.66;;;26.74;46.44
12475;BME280;6302;42.624;23.334;2023-07-09T11:55:19;93711.16;;;26.70;48.73
12475;BME280;6302;42.624;23.334;2023-07-09T11:57:48;93716.59;;;26.70;47.16
12475;BME280;6302;42.624;23.334;2023-07-09T12:00:18;93717.81;;;26.69;49.68
12475;BME280;6302;42.624;23.334;2023-07-09T12:02:45;93699.34;;;26.79;49.70
12475;BME280;6302;42.624;23.334;2023-07-09T12:05:13;93702.94;;;26.96;48.40
12475;BME280;6302;42.624;23.334;2023-07-09T12:07:42;93697.56;;;26.70;46.58
12475;BME280;6302;42.624;23.334;2023-07-09T12:10:19;93701.88;;;26.88;48.19
12475;BME280;6302;42.624;23.334;2023-07-09T12:12:47;93700.34;;;26.76;46.95
12475;BME280;6302;42.624;23.334;2023-07-09T12:15:18;93700.09;;;26.79;45.29
12475;BME280;6302;42.624;23.334;2023-07-09T12:17:54;93706.53;;;26.82;46.77
12475;BME280;6302;42.624;23.334;2023-07-09T12:20:22;93703.88;;;26.87;45.04
12475;BME280;6302;42.624;23.334;2023-07-09T12:22:50;93715.25;;;26.86;45.43
12475;BME280;6302;42.624;23.334;2023-07-09T12:25:23;93702.09;;;26.84;48.31
12475;BME280;6302;42.624;23.334;2023-07-09T12:27:50;93703.16;;;26.92;48.59
12475;BME280;6302;42.624;23.334;2023-07-09T12:30:18;93692.81;;;27.02;49.25
12475;BME280;6302;42.624;23.334;2023-07-09T12:32:46;93701.53;;;27.17;45.36
12475;BME280;6302;42.624;23.334;2023-07-09T12:35:15;93700.31;;;27.18;49.39
12475;BME280;6302;42.624;23.334;2023-07-09T12:37:43;93696.31;;;27.13;48.54
12475;BME280;6302;42.624;23.334;2023-07-09T12:40:17;93689.41;;;27.13;48.54
12475;BME280;6302;42.624;23.334;2023-07-09T12:42:47;93688.41;;;27.10;47.17
12475;BME280;6302;42.624;23.334;2023-07-09T12:45:16;93696.03;;;27.06;48.40
12475;BME280;6302;42.624;23.334;2023-07-09T12:47:44;93684.16;;;26.98;49.79
12475;BME280;6302;42.624;23.334;2023-07-09T12:50:19;93679.22;;;27.02;48.69
12475;BME280;6302;42.624;23.334;2023-07-09T12:52:47;93683.34;;;26.92;49.42
12475;BME280;6302;42.624;23.334;2023-07-09T12:55:23;93670.44;;;26.81;50.43
12475;BME280;6302;42.624;23.334;2023-07-09T12:57:51;93690.31;;;26.93;46.95
12475;BME280;6302;42.624;23.334;2023-07-09T13:00:18;93684.41;;;27.00;49.10
12475;BME280;6302;42.624;23.334;2023-07-09T13:02:52;93674.22;;;26.95;48.58
12475;BME280;6302;42.624;23.334;2023-07-09T13:05:22;93683.69;;;27.05;49.15
12475;BME280;6302;42.624;23.334;2023-07-09T13:07:50;93675.81;;;27.13;50.61
12475;BME280;6302;42.624;23.334;2023-07-09T13:10:19;93682.72;;;27.08;48.33